createdAt,value
2023-09-08T00:00:18.215Z,10.787037
2023-09-08T00:05:18.243Z,10.965278
2023-09-08T00:10:18.000Z,10.912037
2023-09-08T00:15:18.537Z,10.873333
2023-09-08T00:20:18.023Z,11.067130
2023-09-08T00:25:18.489Z,10.613426
2023-09-08T00:30:17.939Z,10.543981
2023-09-08T00:35:17.944Z,10.148148
2023-09-08T00:40:17.820Z,9.847222
2023-09-08T00:45:18.004Z,9.606481
2023-09-08T00:50:18.065Z,10.326389
2023-09-08T00:55:18.180Z,10.337963
2023-09-08T01:00:17.832Z,9.699074
2023-09-08T01:05:17.913Z,9.879630
2023-09-08T01:10:17.883Z,10.416667
2023-09-08T01:15:18.024Z,10.384259
2023-09-08T01:20:18.062Z,9.944444
2023-09-08T01:25:17.811Z,9.388889
2023-09-08T01:30:17.934Z,9.789352
2023-09-08T01:35:17.885Z,10.083333
2023-09-08T01:40:17.843Z,9.293981
2023-09-08T01:45:17.911Z,9.465278
2023-09-08T01:50:18.080Z,10.046296
2023-09-08T01:55:17.945Z,10.037037
2023-09-08T02:00:17.946Z,9.979167
2023-09-08T02:05:18.099Z,9.252315
2023-09-08T02:10:17.820Z,9.282407
2023-09-08T02:15:17.980Z,9.918981
2023-09-08T02:20:18.055Z,8.995370
2023-09-08T02:25:17.827Z,9.539352
2023-09-08T02:30:17.974Z,9.833333
2023-09-08T02:35:18.049Z,9.444444
2023-09-08T02:40:18.073Z,8.865741
2023-09-08T02:45:17.942Z,8.988426
2023-09-08T02:50:17.983Z,8.833333
2023-09-08T02:55:17.784Z,9.192130
2023-09-08T03:00:17.752Z,9.439815
2023-09-08T03:05:17.921Z,9.118056
2023-09-08T03:10:17.834Z,8.557870
2023-09-08T03:15:17.823Z,8.708333
2023-09-08T03:20:18.172Z,8.953704
2023-09-08T03:25:17.791Z,8.951389
2023-09-08T03:30:18.315Z,8.907407
2023-09-08T03:35:17.857Z,8.710648
2023-09-08T03:40:18.114Z,8.569444
2023-09-08T03:45:18.309Z,8.861111
2023-09-08T03:50:18.257Z,8.456019
2023-09-08T03:55:18.271Z,8.481481
2023-09-08T04:00:18.085Z,9.041667
2023-09-08T04:05:17.843Z,8.432870
2023-09-08T04:10:18.357Z,8.322222
2023-09-08T04:15:17.989Z,8.893519
2023-09-08T04:20:18.075Z,8.451389
2023-09-08T04:25:17.711Z,8.435185
2023-09-08T04:30:17.913Z,8.655093
2023-09-08T04:35:18.190Z,8.206019
2023-09-08T04:40:17.748Z,8.611111
2023-09-08T04:45:17.879Z,8.474537
2023-09-08T04:50:17.855Z,8.541667
2023-09-08T04:55:17.773Z,8.990741
2023-09-08T05:00:17.955Z,8.844907
2023-09-08T05:05:17.950Z,8.481481
2023-09-08T05:10:18.142Z,8.891204
2023-09-08T05:15:17.905Z,9.601852
2023-09-08T05:20:17.978Z,10.092593
2023-09-08T05:25:18.069Z,9.962963
2023-09-08T05:30:17.878Z,10.051111
2023-09-08T05:35:18.216Z,10.597222
2023-09-08T05:40:17.989Z,10.986111
2023-09-08T05:45:18.409Z,11.293981
2023-09-08T05:50:17.793Z,11.557870
2023-09-08T05:55:17.835Z,11.740741
2023-09-08T06:00:17.786Z,11.956019
2023-09-08T06:05:17.704Z,12.273148
2023-09-08T06:10:17.942Z,12.453704
2023-09-08T06:15:17.868Z,12.703704
2023-09-08T06:20:18.030Z,13.009259
2023-09-08T06:25:17.759Z,13.335648
2023-09-08T06:30:17.940Z,13.490741
2023-09-08T06:35:18.018Z,13.861111
2023-09-08T06:40:17.800Z,14.120370
2023-09-08T06:45:17.720Z,14.476852
2023-09-08T06:50:17.831Z,15.053241
2023-09-08T06:55:17.962Z,15.712963
2023-09-08T07:00:18.607Z,16.210648
2023-09-08T07:05:18.149Z,16.634259
2023-09-08T07:10:18.113Z,17.104167
2023-09-08T07:15:18.025Z,17.435185
2023-09-08T07:20:18.614Z,17.831019
2023-09-08T07:25:18.224Z,18.275463
2023-09-08T07:30:17.942Z,18.851852
2023-09-08T07:35:18.270Z,19.319444
2023-09-08T07:40:17.925Z,19.800926
2023-09-08T07:45:18.117Z,20.307870
2023-09-08T07:50:17.955Z,20.918981
2023-09-08T07:55:18.332Z,21.421296
2023-09-08T08:00:17.798Z,21.645833
2023-09-08T08:05:18.001Z,22.451389
2023-09-08T08:10:17.812Z,23.451389
2023-09-08T08:15:17.955Z,23.490741
2023-09-08T08:20:18.266Z,23.719907
2023-09-08T08:25:17.875Z,23.819444
2023-09-08T08:30:18.215Z,24.085648
2023-09-08T08:35:17.874Z,24.212963
2023-09-08T08:40:17.932Z,24.574074
2023-09-08T08:45:17.731Z,24.747685
2023-09-08T08:50:18.123Z,24.912037
2023-09-08T08:55:17.703Z,25.053241
2023-09-08T09:00:17.891Z,25.067130
2023-09-08T09:05:17.862Z,25.064815
2023-09-08T09:10:17.786Z,25.259259
2023-09-08T09:15:18.140Z,25.736111
2023-09-08T09:20:18.550Z,26.002315
2023-09-08T09:25:17.516Z,26.083333
2023-09-08T09:30:17.531Z,26.297778
2023-09-08T09:35:17.938Z,26.637778
2023-09-08T09:40:18.227Z,27.111111
2023-09-08T09:45:17.863Z,27.486111
2023-09-08T09:50:17.958Z,27.384259
2023-09-08T09:55:17.787Z,27.546296
2023-09-08T10:00:17.912Z,27.557870
2023-09-08T10:05:17.991Z,27.805556
2023-09-08T10:10:17.789Z,27.847222
2023-09-08T10:20:18.433Z,27.930556
2023-09-08T10:25:17.764Z,27.976852
2023-09-08T10:30:17.964Z,28.104167
2023-09-08T10:35:17.847Z,28.366667
2023-09-08T10:40:17.747Z,28.479167
2023-09-08T10:45:18.152Z,28.465278
2023-09-08T10:50:18.011Z,28.627315
2023-09-08T10:55:18.602Z,28.456019
2023-09-08T11:00:18.031Z,28.590278
2023-09-08T11:05:18.066Z,28.527778
2023-09-08T11:10:18.174Z,28.837963
2023-09-08T11:15:17.730Z,29.062500
2023-09-08T11:20:17.912Z,29.013889
2023-09-08T11:25:18.109Z,29.143519
2023-09-08T11:30:18.413Z,29.106481
2023-09-08T11:35:17.702Z,29.270833
2023-09-08T11:40:18.132Z,29.780093
2023-09-08T11:45:17.797Z,29.437500
2023-09-08T11:50:18.095Z,29.400463
2023-09-08T11:55:18.039Z,29.606481
2023-09-08T12:00:17.792Z,29.414352
2023-09-08T12:05:17.859Z,29.504630
2023-09-08T12:10:17.854Z,29.750000
2023-09-08T12:15:17.816Z,29.752315
2023-09-08T12:20:17.922Z,29.965278
2023-09-08T12:25:17.879Z,30.085648
2023-09-08T12:30:17.715Z,30.111111
2023-09-08T12:35:17.694Z,29.988426
2023-09-08T12:40:17.942Z,30.270833
2023-09-08T12:45:17.674Z,30.145833
2023-09-08T12:50:17.985Z,29.856481
2023-09-08T12:55:17.817Z,30.201389
2023-09-08T13:00:17.683Z,30.125000
2023-09-08T13:05:17.721Z,30.203704
2023-09-08T13:10:18.010Z,30.243056
2023-09-08T13:15:18.029Z,30.041667
2023-09-08T13:20:18.283Z,29.960648
2023-09-08T13:25:18.106Z,30.094907
2023-09-08T13:30:17.786Z,30.006944
2023-09-08T13:35:18.510Z,29.983796
2023-09-08T13:40:18.409Z,30.310185
2023-09-08T13:45:17.720Z,30.284722
2023-09-08T13:50:18.605Z,30.400000
2023-09-08T13:55:38.317Z,30.349537
2023-09-08T14:00:22.711Z,30.240741
2023-09-08T14:05:20.381Z,30.256944
2023-09-08T14:10:28.852Z,30.275463
2023-09-08T14:15:17.737Z,30.173611
2023-09-08T14:20:18.093Z,30.048611
2023-09-08T14:25:17.774Z,30.104167
2023-09-08T14:30:17.791Z,30.150463
2023-09-08T14:35:17.746Z,30.041667
2023-09-08T14:40:17.720Z,29.960648
2023-09-08T14:45:17.724Z,29.865741
2023-09-08T14:50:17.672Z,29.812500
2023-09-08T14:55:18.026Z,29.879630
2023-09-08T15:00:17.836Z,29.951389
2023-09-08T15:05:17.642Z,29.888889
2023-09-08T15:10:17.747Z,29.712963
2023-09-08T15:15:17.660Z,29.743056
2023-09-08T15:20:17.830Z,29.787037
2023-09-08T15:25:17.617Z,29.826389
2023-09-08T15:30:17.656Z,29.733796
2023-09-08T15:35:17.783Z,29.576389
2023-09-08T15:40:17.914Z,29.435185
2023-09-08T15:45:17.711Z,29.300926
2023-09-08T15:50:17.641Z,29.164352
2023-09-08T15:55:18.287Z,29.075556
2023-09-08T16:00:17.750Z,28.844907
2023-09-08T16:05:18.059Z,28.682870
2023-09-08T16:10:17.732Z,28.576389
2023-09-08T16:15:17.656Z,28.421296
2023-09-08T16:20:19.944Z,28.250000
2023-09-08T16:25:17.652Z,28.120370
2023-09-08T16:30:17.864Z,27.993056
2023-09-08T16:35:17.623Z,27.840278
2023-09-08T16:40:17.765Z,27.611111
2023-09-08T16:45:17.777Z,27.358796
2023-09-08T16:50:17.872Z,26.964444
2023-09-08T16:55:17.691Z,26.439815
2023-09-08T17:00:18.153Z,26.027778
2023-09-08T17:05:18.303Z,25.898148
2023-09-08T17:10:18.595Z,25.694444
2023-09-08T17:15:17.785Z,25.180556
2023-09-08T17:20:17.837Z,24.418981
2023-09-08T17:25:18.001Z,24.055556
2023-09-08T17:30:17.675Z,22.423611
2023-09-08T17:35:17.817Z,21.423611
2023-09-08T17:40:17.607Z,20.803241
2023-09-08T17:45:17.702Z,20.137778
2023-09-08T17:50:17.575Z,19.682870
2023-09-08T17:55:17.865Z,18.995370
2023-09-08T18:00:17.728Z,18.717593
2023-09-08T18:05:18.065Z,18.312500
2023-09-08T18:10:17.723Z,18.000000
2023-09-08T18:15:17.675Z,17.733796
2023-09-08T18:20:17.871Z,17.342593
2023-09-08T18:25:17.709Z,17.041667
2023-09-08T18:30:17.600Z,16.784722
2023-09-08T18:35:17.688Z,16.490741
2023-09-08T18:40:17.840Z,16.291667
2023-09-08T18:45:17.606Z,16.040000
2023-09-08T18:50:18.048Z,16.118056
2023-09-08T18:55:17.700Z,16.435185
2023-09-08T19:00:17.714Z,16.368056
2023-09-08T19:05:17.743Z,15.754630
2023-09-08T19:10:17.683Z,15.219907
2023-09-08T19:15:17.881Z,15.076389
2023-09-08T19:20:18.084Z,14.868056
2023-09-08T19:25:18.567Z,14.881944
2023-09-08T19:30:17.747Z,14.631944
2023-09-08T19:35:17.634Z,14.733796
2023-09-08T19:40:18.257Z,14.476852
2023-09-08T19:45:17.594Z,14.085648
2023-09-08T19:50:17.568Z,13.761574
2023-09-08T19:55:17.601Z,13.798611
2023-09-08T20:00:17.877Z,14.043981
2023-09-08T20:05:17.662Z,14.011574
2023-09-08T20:10:17.701Z,13.875000
2023-09-08T20:15:17.560Z,14.143519
2023-09-08T20:20:17.713Z,13.601852
2023-09-08T20:25:17.954Z,13.550926
2023-09-08T20:30:17.773Z,13.645833
2023-09-08T20:35:17.728Z,13.729167
2023-09-08T20:40:17.549Z,13.437500
2023-09-08T20:45:18.324Z,13.266204
2023-09-08T20:50:17.745Z,13.270833
2023-09-08T20:55:17.686Z,12.840278
2023-09-08T21:00:17.656Z,12.833333
2023-09-08T21:05:17.808Z,12.650463
2023-09-08T21:10:17.534Z,12.810185
2023-09-08T21:15:17.746Z,12.199074
2023-09-08T21:20:18.084Z,12.375000
2023-09-08T21:25:17.923Z,12.439815
2023-09-08T21:30:17.477Z,12.157407
2023-09-08T21:35:17.615Z,12.206019
2023-09-08T21:40:17.548Z,11.791667
2023-09-08T21:45:17.952Z,12.101852
2023-09-08T21:50:17.484Z,11.981481
2023-09-08T21:55:17.886Z,11.594907
2023-09-08T22:00:18.480Z,11.719907
2023-09-08T22:05:17.964Z,11.537037
2023-09-08T22:10:17.910Z,11.400463
2023-09-08T22:15:17.541Z,11.523148
2023-09-08T22:20:18.023Z,12.013889
2023-09-08T22:25:18.316Z,11.923611
2023-09-08T22:30:17.715Z,11.546296
2023-09-08T22:35:17.758Z,11.180556
2023-09-08T22:40:17.826Z,11.111111
2023-09-08T22:45:17.661Z,10.979167
2023-09-08T22:50:17.783Z,11.300926
2023-09-08T22:55:25.688Z,11.530093
2023-09-08T23:00:17.878Z,10.863426
2023-09-08T23:05:17.569Z,11.245370
2023-09-08T23:10:17.805Z,10.738426
2023-09-08T23:15:17.516Z,10.967593
2023-09-08T23:20:17.734Z,11.219907
2023-09-08T23:25:17.520Z,11.013889
2023-09-08T23:30:17.748Z,10.858796
2023-09-08T23:35:17.702Z,10.865741
2023-09-08T23:40:17.858Z,10.388889
2023-09-08T23:45:17.614Z,10.451389
2023-09-08T23:50:17.540Z,10.736111
2023-09-08T23:55:17.677Z,10.358796
